Time;durP1;ratioP1;P1;durP2;ratioP2;P2;SDS_P1;SDS_P2;PMS_P1;PMS_P2;Temp;Humidity;BMP_temperature;BMP_pressure;BME280_temperature;BME280_humidity;BME280_pressure;Samples;Min_cycle;Max_cycle;Signal;HPM_P1;HPM_P2
2023/02/04 00:00:37;;;;;;;6.60;2.80;;;;;;;1.95;83.03;96363.27;108909;1251;101298;-75
2023/02/04 00:03:25;;;;;;;6.40;2.70;;;;;;;1.95;83.15;96360.93;108892;1251;101438;-74
2023/02/04 00:05:53;;;;;;;6.70;3.30;;;;;;;1.93;83.27;96359.73;108906;1251;95522;-75
2023/02/04 00:08:21;;;;;;;9.40;3.20;;;;;;;1.92;83.02;96361.89;108878;1251;95978;-75
2023/02/04 00:10:49;;;;;;;8.80;3.60;;;;;;;1.91;83.17;96360.00;108899;1251;103484;-75
2023/02/04 00:13:17;;;;;;;8.20;3.60;;;;;;;1.93;83.23;96354.81;108593;1252;101320;-75
2023/02/04 00:15:46;;;;;;;16.00;6.50;;;;;;;1.96;83.22;96357.16;108842;1251;100081;-75
2023/02/04 00:18:14;;;;;;;9.50;4.90;;;;;;;1.93;83.26;96357.11;108836;1251;95536;-75
2023/02/04 00:20:42;;;;;;;7.40;4.50;;;;;;;1.92;83.17;96352.23;108911;1251;97066;-75
2023/02/04 00:23:10;;;;;;;4.20;2.30;;;;;;;1.93;83.27;96352.04;108923;1250;102579;-76
2023/02/04 00:25:38;;;;;;;6.20;2.70;;;;;;;1.94;83.29;96348.27;108904;1250;101676;-75
2023/02/04 00:28:06;;;;;;;8.20;3.30;;;;;;;1.98;83.26;96345.83;108888;1251;100108;-76
2023/02/04 00:30:34;;;;;;;5.10;2.30;;;;;;;1.99;83.39;96353.54;108679;1251;96015;-76
2023/02/04 00:33:03;;;;;;;5.10;2.40;;;;;;;2.00;83.39;96347.45;108949;1251;96343;-76
2023/02/04 00:35:31;;;;;;;3.90;2.10;;;;;;;2.03;83.29;96342.83;108855;1251;102558;-75
2023/02/04 00:37:59;;;;;;;3.60;2.00;;;;;;;2.07;83.39;96338.41;108847;1250;101301;-76
2023/02/04 00:40:27;;;;;;;1.60;1.40;;;;;;;2.09;83.40;96338.33;108711;1257;99749;-76
2023/02/04 00:42:55;;;;;;;6.70;2.30;;;;;;;2.09;83.27;96337.55;108823;1251;95657;-76
2023/02/04 00:45:23;;;;;;;4.50;2.10;;;;;;;2.12;83.16;96335.05;108892;1251;95883;-77
2023/02/04 00:47:51;;;;;;;3.20;1.90;;;;;;;2.16;83.16;96331.47;108851;1251;103552;-77
2023/02/04 00:50:20;;;;;;;3.60;1.60;;;;;;;2.18;83.07;96327.29;108932;1251;101720;-76
2023/02/04 00:52:48;;;;;;;2.80;1.30;;;;;;;2.21;83.12;96327.98;108877;1251;100004;-77
2023/02/04 00:55:17;;;;;;;2.30;1.20;;;;;;;2.24;82.99;96327.02;108721;1251;95991;-76
2023/02/04 00:57:46;;;;;;;2.30;1.10;;;;;;;2.28;82.92;96332.03;108920;1251;95978;-76
2023/02/04 01:00:16;;;;;;;2.50;1.30;;;;;;;2.32;82.94;96329.98;108758;1251;102672;-77
2023/02/04 01:02:44;;;;;;;2.90;1.20;;;;;;;2.35;82.95;96328.21;108834;1251;100431;-76
2023/02/04 01:05:12;;;;;;;1.90;1.20;;;;;;;2.38;82.80;96331.28;108839;1252;100125;-76
2023/02/04 01:07:40;;;;;;;1.90;1.10;;;;;;;2.38;82.68;96326.91;108863;1251;95562;-76
2023/02/04 01:10:09;;;;;;;3.60;1.60;;;;;;;2.38;82.65;96326.55;108915;1251;95985;-76
2023/02/04 01:12:37;;;;;;;2.20;1.20;;;;;;;2.38;82.53;96319.86;108945;1254;103833;-78
2023/02/04 01:15:05;;;;;;;2.60;1.50;;;;;;;2.39;82.58;96316.59;108919;1250;101478;-78
2023/02/04 01:17:33;;;;;;;2.00;1.20;;;;;;;2.39;82.54;96316.84;108852;1251;100019;-77
2023/02/04 01:20:02;;;;;;;2.00;0.90;;;;;;;2.39;82.53;96308.69;108851;1251;95939;-77
2023/02/04 01:22:30;;;;;;;2.90;1.20;;;;;;;2.39;82.57;96312.41;108872;1251;95995;-78
2023/02/04 01:24:58;;;;;;;1.60;1.00;;;;;;;2.38;82.42;96308.30;108923;1251;103252;-77
2023/02/04 01:27:26;;;;;;;1.90;1.10;;;;;;;2.38;82.50;96307.56;108893;1251;101000;-78
2023/02/04 01:29:54;;;;;;;2.80;1.40;;;;;;;2.36;82.35;96306.23;108865;1251;99933;-78
2023/02/04 01:32:22;;;;;;;1.50;1.00;;;;;;;2.30;82.23;96297.27;108842;1251;95934;-78
2023/02/04 01:34:50;;;;;;;1.30;1.00;;;;;;;2.28;82.39;96291.64;108729;1251;95950;-79
2023/02/04 01:37:18;;;;;;;2.10;1.70;;;;;;;2.27;82.28;96289.16;108920;1251;103546;-79
2023/02/04 01:39:46;;;;;;;2.80;1.60;;;;;;;2.25;82.40;96289.33;108891;1250;101444;-79
2023/02/04 01:42:14;;;;;;;2.40;1.10;;;;;;;2.22;82.30;96282.21;108900;1251;107409;-77
2023/02/04 01:44:42;;;;;;;2.60;1.20;;;;;;;2.20;82.34;96283.54;108878;1251;95580;-78
2023/02/04 01:47:11;;;;;;;2.40;1.20;;;;;;;2.18;82.42;96282.49;108925;1251;95997;-77
2023/02/04 01:49:39;;;;;;;2.60;1.50;;;;;;;2.17;82.40;96279.79;108891;1251;103494;-78
2023/02/04 01:52:09;;;;;;;3.70;1.60;;;;;;;2.18;82.52;96274.70;108717;1252;100549;-77
2023/02/04 01:54:37;;;;;;;2.10;1.50;;;;;;;2.16;82.38;96266.46;108911;1251;99802;-79
2023/02/04 01:57:09;;;;;;;3.20;1.30;;;;;;;2.13;82.39;96266.50;108893;1251;95937;-81
2023/02/04 01:59:41;;;;;;;3.90;1.80;;;;;;;2.14;82.45;96267.71;108853;1251;95591;-78
2023/02/04 02:02:42;;;;;;;3.10;1.50;;;;;;;2.16;82.61;96265.04;108911;1251;103069;-81
2023/02/04 02:05:14;;;;;;;3.80;1.60;;;;;;;2.13;82.40;96260.77;108953;1250;101260;-78
2023/02/04 02:07:42;;;;;;;1.90;1.00;;;;;;;2.08;82.39;96261.92;108819;1251;99926;-78
2023/02/04 02:10:13;;;;;;;2.90;1.50;;;;;;;2.03;82.41;96261.30;108844;1251;95585;-79
2023/02/04 02:12:43;;;;;;;3.60;1.60;;;;;;;2.01;82.60;96258.70;108902;1250;96033;-78
2023/02/04 02:15:12;;;;;;;2.00;1.10;;;;;;;2.04;82.54;96262.59;108870;1251;103375;-78
2023/02/04 02:17:41;;;;;;;2.70;1.10;;;;;;;2.07;82.63;96263.17;108838;1251;100000;-79
2023/02/04 02:20:12;;;;;;;2.90;1.20;;;;;;;2.07;82.77;96263.59;108883;1251;100011;-78
2023/02/04 02:22:55;;;;;;;2.20;1.00;;;;;;;2.05;82.73;96262.11;108868;1251;95913;-78
2023/02/04 02:25:23;;;;;;;1.80;1.20;;;;;;;2.00;82.72;96267.66;108684;1252;96171;-76
2023/02/04 02:27:52;;;;;;;1.70;1.00;;;;;;;1.97;82.58;96256.02;108899;1251;103691;-78
2023/02/04 02:30:20;;;;;;;3.20;1.10;;;;;;;1.99;82.77;96264.69;108875;1251;101219;-78
2023/02/04 02:32:50;;;;;;;2.20;1.10;;;;;;;2.03;82.74;96257.66;108832;1251;99580;-78
2023/02/04 02:35:18;;;;;;;2.60;0.90;;;;;;;2.05;82.86;96266.44;108849;1251;95568;-78
2023/02/04 02:37:47;;;;;;;2.70;1.10;;;;;;;2.02;82.80;96256.10;108931;1251;95998;-80
2023/02/04 02:40:15;;;;;;;1.10;0.80;;;;;;;2.01;82.79;96261.04;108877;1251;103472;-78
2023/02/04 02:42:45;;;;;;;1.10;0.60;;;;;;;2.00;82.90;96262.95;108878;1251;101043;-78
2023/02/04 02:45:22;;;;;;;1.50;0.70;;;;;;;2.02;82.85;96268.05;108723;1251;99326;-81
2023/02/04 02:47:51;;;;;;;0.60;0.60;;;;;;;2.01;82.89;96268.45;108898;1251;95603;-78
2023/02/04 02:50:25;;;;;;;0.80;0.60;;;;;;;1.99;82.67;96265.05;108890;1251;95933;-80
2023/02/04 02:52:54;;;;;;;2.80;0.90;;;;;;;1.99;82.73;96262.73;108891;1251;103477;-77
2023/02/04 02:55:27;;;;;;;1.90;0.90;;;;;;;2.00;82.85;96261.14;108795;1251;100016;-78
2023/02/04 02:57:56;;;;;;;2.60;0.70;;;;;;;2.02;82.78;96262.89;108877;1251;100325;-77
2023/02/04 03:00:27;;;;;;;1.20;0.70;;;;;;;2.01;82.89;96262.63;108879;1251;95546;-77
2023/02/04 03:03:02;;;;;;;0.60;0.50;;;;;;;2.02;82.78;96266.95;108631;1251;95982;-77
2023/02/04 03:05:32;;;;;;;0.80;0.40;;;;;;;2.04;82.69;96264.43;108664;1254;103300;-77
2023/02/04 03:08:00;;;;;;;0.80;0.70;;;;;;;2.04;82.75;96263.33;108906;1251;101204;-77
2023/02/04 03:10:29;;;;;;;0.60;0.60;;;;;;;2.02;82.79;96266.12;108874;1251;100148;-77
2023/02/04 03:12:58;;;;;;;0.70;0.50;;;;;;;2.02;82.71;96271.38;108832;1251;95579;-80
2023/02/04 03:15:27;;;;;;;0.80;0.50;;;;;;;2.03;82.56;96274.66;108897;1251;96005;-77
2023/02/04 03:17:55;;;;;;;1.20;0.60;;;;;;;2.02;82.56;96280.39;108746;1252;103442;-78
2023/02/04 03:20:29;;;;;;;1.70;0.80;;;;;;;1.98;82.61;96292.77;108878;1251;101274;-80
2023/02/04 03:22:58;;;;;;;0.80;0.70;;;;;;;1.96;82.67;96296.82;108870;1253;100085;-77
2023/02/04 03:25:27;;;;;;;1.30;0.60;;;;;;;1.94;82.59;96301.83;108888;1251;95638;-77
2023/02/04 03:27:59;;;;;;;1.20;0.70;;;;;;;1.88;82.52;96306.05;108901;1251;96031;-78
2023/02/04 03:30:28;;;;;;;2.60;0.80;;;;;;;1.80;82.35;96310.42;108902;1251;103405;-77
2023/02/04 03:32:56;;;;;;;1.20;0.70;;;;;;;1.70;82.37;96317.60;108901;1251;100989;-78
2023/02/04 03:35:24;;;;;;;1.80;0.70;;;;;;;1.63;82.32;96320.64;108845;1251;100049;-77
2023/02/04 03:37:52;;;;;;;0.70;0.60;;;;;;;1.58;82.59;96324.94;108874;1251;95547;-77
2023/02/04 03:40:23;;;;;;;1.50;0.60;;;;;;;1.52;82.52;96323.31;108874;1251;96017;-78
2023/02/04 03:42:51;;;;;;;1.60;1.30;;;;;;;1.48;82.53;96323.61;108722;1251;103512;-77
2023/02/04 03:45:19;;;;;;;0.90;0.70;;;;;;;1.41;82.54;96332.91;108916;1251;101021;-77
2023/02/04 03:47:47;;;;;;;2.20;1.00;;;;;;;1.39;82.67;96332.34;108863;1254;99849;-76
2023/02/04 03:50:15;;;;;;;1.90;0.80;;;;;;;1.38;82.72;96332.11;108635;1253;95689;-76
2023/02/04 03:52:44;;;;;;;1.80;0.80;;;;;;;1.31;82.71;96334.91;108733;1251;97321;-77
2023/02/04 03:55:12;;;;;;;1.90;1.20;;;;;;;1.24;82.92;96339.62;108938;1250;103271;-76
2023/02/04 03:57:40;;;;;;;2.50;1.70;;;;;;;1.18;82.95;96344.17;108683;1251;100385;-77
2023/02/04 04:00:10;;;;;;;1.90;1.50;;;;;;;1.14;82.99;96348.41;108820;1251;99232;-76
2023/02/04 04:02:38;;;;;;;3.40;1.70;;;;;;;1.11;83.00;96357.09;108765;1253;95665;-77
2023/02/04 04:05:08;;;;;;;1.50;1.30;;;;;;;1.08;83.07;96365.38;108885;1251;95583;-77
2023/02/04 04:07:36;;;;;;;1.50;1.00;;;;;;;1.06;83.17;96369.02;108868;1251;103390;-77
2023/02/04 04:10:04;;;;;;;1.00;1.00;;;;;;;1.02;83.06;96380.98;108875;1251;101264;-77
2023/02/04 04:12:32;;;;;;;7.80;1.10;;;;;;;0.97;83.27;96386.30;108623;1251;100013;-76
2023/02/04 04:15:00;;;;;;;1.70;1.00;;;;;;;0.98;83.40;96389.34;108906;1251;95554;-76
2023/02/04 04:17:28;;;;;;;1.20;1.10;;;;;;;0.93;83.42;96388.92;108904;1251;96066;-76
2023/02/04 04:19:57;;;;;;;1.50;1.30;;;;;;;0.94;83.52;96388.83;108866;1251;103760;-77
2023/02/04 04:22:25;;;;;;;2.10;0.90;;;;;;;0.91;83.66;96390.04;108715;1251;101015;-77
2023/02/04 04:24:53;;;;;;;0.80;0.80;;;;;;;0.87;83.52;96397.02;108844;1251;100167;-76
2023/02/04 04:27:21;;;;;;;1.40;1.20;;;;;;;0.85;83.43;96400.79;108846;1251;95621;-76
2023/02/04 04:29:49;;;;;;;1.80;1.30;;;;;;;0.83;83.36;96404.03;108704;1254;96035;-77
2023/02/04 04:32:17;;;;;;;2.10;1.60;;;;;;;0.80;83.38;96405.18;108900;1251;103252;-77
2023/02/04 04:34:45;;;;;;;1.40;1.10;;;;;;;0.74;83.58;96413.64;108900;1254;100311;-79
2023/02/04 04:37:14;;;;;;;1.30;0.80;;;;;;;0.73;83.55;96422.17;108673;1252;101342;-79
2023/02/04 04:39:42;;;;;;;4.30;0.90;;;;;;;0.77;83.69;96431.33;108867;1251;95534;-77
2023/02/04 04:42:10;;;;;;;1.40;1.00;;;;;;;0.82;83.93;96439.21;108725;1251;96686;-79
2023/02/04 04:44:38;;;;;;;1.10;0.70;;;;;;;0.87;83.70;96445.61;108903;1251;103237;-77
2023/02/04 04:47:06;;;;;;;1.20;0.90;;;;;;;0.86;83.70;96448.01;108914;1251;101543;-78
2023/02/04 04:49:34;;;;;;;1.70;1.10;;;;;;;0.86;83.75;96452.14;108923;1251;99499;-78
2023/02/04 04:52:02;;;;;;;1.10;0.80;;;;;;;0.84;83.72;96455.34;108895;1251;95636;-77
2023/02/04 04:54:30;;;;;;;0.90;0.60;;;;;;;0.82;83.74;96464.59;108929;1256;95872;-77
2023/02/04 04:56:59;;;;;;;1.40;0.90;;;;;;;0.84;83.69;96470.64;108907;1251;103138;-79
2023/02/04 04:59:27;;;;;;;2.20;1.10;;;;;;;0.78;83.68;96476.55;108688;1251;101489;-79
2023/02/04 05:01:55;;;;;;;2.10;1.50;;;;;;;0.72;83.72;96486.48;108800;1251;99965;-80
2023/02/04 05:04:23;;;;;;;2.50;1.50;;;;;;;0.71;83.83;96490.27;108662;1254;96010;-78
2023/02/04 05:06:51;;;;;;;3.40;1.70;;;;;;;0.72;83.85;96499.43;108903;1251;96436;-77
2023/02/04 05:09:19;;;;;;;2.00;1.30;;;;;;;0.73;83.90;96504.39;108810;1256;103441;-78
2023/02/04 05:11:47;;;;;;;2.40;1.40;;;;;;;0.70;83.83;96513.38;108932;1251;101265;-79
2023/02/04 05:14:15;;;;;;;4.00;2.90;;;;;;;0.71;83.90;96520.23;108895;1251;100281;-78
2023/02/04 05:16:43;;;;;;;5.80;4.80;;;;;;;0.72;83.96;96526.52;108876;1256;95634;-77
2023/02/04 05:19:11;;;;;;;3.60;2.90;;;;;;;0.71;83.85;96558.27;108880;1251;96134;-79
2023/02/04 05:21:40;;;;;;;5.40;3.40;;;;;;;0.63;83.89;96594.95;108871;1254;103408;-80
2023/02/04 05:24:08;;;;;;;2.30;1.70;;;;;;;0.50;83.87;96598.35;108912;1251;101963;-77
2023/02/04 05:26:36;;;;;;;2.50;2.00;;;;;;;0.37;83.59;96604.70;108683;1251;99988;-78
2023/02/04 05:29:04;;;;;;;3.70;2.10;;;;;;;0.30;83.53;96621.70;108868;1252;95980;-78
2023/02/04 05:31:32;;;;;;;5.20;2.70;;;;;;;0.25;83.44;96638.42;108937;1255;96000;-79
2023/02/04 05:34:01;;;;;;;2.50;2.00;;;;;;;0.17;83.43;96658.95;108900;1251;103733;-78
2023/02/04 05:36:29;;;;;;;3.50;2.70;;;;;;;0.13;83.49;96678.61;108908;1251;101445;-78
2023/02/04 05:38:57;;;;;;;5.80;3.80;;;;;;;0.06;83.48;96699.74;108639;1254;99884;-80
2023/02/04 05:41:25;;;;;;;6.60;5.40;;;;;;;-0.07;83.40;96714.90;108671;1251;95633;-78
2023/02/04 05:43:53;;;;;;;6.40;4.90;;;;;;;-0.18;83.28;96727.80;108885;1251;96007;-79
2023/02/04 05:46:21;;;;;;;6.50;5.80;;;;;;;-0.23;83.38;96741.41;108903;1251;103508;-79
2023/02/04 05:48:49;;;;;;;8.70;5.90;;;;;;;-0.28;83.43;96756.79;108890;1251;100220;-78
2023/02/04 05:51:17;;;;;;;8.40;6.60;;;;;;;-0.40;83.41;96775.13;108667;1251;100116;-79
2023/02/04 05:53:45;;;;;;;8.10;6.20;;;;;;;-0.47;83.20;96804.71;108888;1251;95657;-78
2023/02/04 05:56:13;;;;;;;7.90;6.10;;;;;;;-0.57;83.06;96817.35;108931;1251;97031;-80
2023/02/04 05:58:41;;;;;;;8.70;7.20;;;;;;;-0.67;83.01;96832.10;108825;1256;103810;-78
2023/02/04 06:01:09;;;;;;;8.00;6.70;;;;;;;-0.78;82.99;96843.95;108878;1251;101385;-78
2023/02/04 06:03:38;;;;;;;7.30;5.70;;;;;;;-0.88;83.19;96859.45;108875;1251;100252;-78
2023/02/04 06:06:06;;;;;;;8.00;5.60;;;;;;;-0.96;83.14;96875.48;108902;1251;95581;-77
2023/02/04 06:08:34;;;;;;;9.80;7.20;;;;;;;-1.01;83.16;96900.90;108882;1251;96039;-77
2023/02/04 06:11:02;;;;;;;8.30;6.40;;;;;;;-1.03;83.18;96915.35;108931;1251;103424;-78
2023/02/04 06:13:32;;;;;;;8.60;6.50;;;;;;;-1.02;83.21;96937.17;108926;1251;101411;-77
2023/02/04 06:16:00;;;;;;;8.60;6.60;;;;;;;-1.01;83.21;96940.57;108868;1251;99002;-77
2023/02/04 06:18:28;;;;;;;7.50;6.50;;;;;;;-1.03;83.09;96959.16;108934;1251;95637;-78
2023/02/04 06:20:56;;;;;;;6.80;5.40;;;;;;;-1.05;83.01;96974.70;108865;1251;96469;-76
2023/02/04 06:23:24;;;;;;;6.50;5.30;;;;;;;-1.12;82.85;96988.44;108825;1256;103731;-78
2023/02/04 06:25:52;;;;;;;6.00;5.10;;;;;;;-1.15;82.81;97004.30;108906;1251;101523;-77
2023/02/04 06:28:20;;;;;;;6.50;5.50;;;;;;;-1.14;82.96;97023.45;108870;1251;99867;-77
2023/02/04 06:30:49;;;;;;;6.30;5.30;;;;;;;-1.13;83.04;97036.73;108786;1255;96442;-76
2023/02/04 06:33:17;;;;;;;7.30;5.70;;;;;;;-1.13;82.92;97048.77;108869;1251;95964;-76
2023/02/04 06:35:45;;;;;;;7.10;6.00;;;;;;;-1.12;82.92;97057.12;108760;1251;103149;-78
2023/02/04 06:38:13;;;;;;;7.50;5.80;;;;;;;-1.12;82.96;97071.06;108759;1251;100991;-76
2023/02/04 06:40:41;;;;;;;5.10;4.20;;;;;;;-1.15;82.90;97084.48;108869;1251;99834;-76
2023/02/04 06:43:09;;;;;;;5.10;4.60;;;;;;;-1.22;82.80;97101.84;108858;1251;95585;-76
2023/02/04 06:45:37;;;;;;;5.90;4.60;;;;;;;-1.26;82.80;97110.23;108695;1253;96047;-76
2023/02/04 06:48:05;;;;;;;5.40;4.20;;;;;;;-1.28;82.83;97122.44;108704;1251;103510;-75
2023/02/04 06:50:34;;;;;;;4.70;4.20;;;;;;;-1.35;82.75;97132.45;108667;1252;101473;-76
2023/02/04 06:53:02;;;;;;;19.40;14.50;;;;;;;-1.35;82.97;97142.02;108796;1251;100036;-75
2023/02/04 06:55:30;;;;;;;5.90;4.40;;;;;;;-1.35;82.92;97157.68;108859;1251;95638;-77
2023/02/04 06:57:58;;;;;;;4.40;3.70;;;;;;;-1.41;82.95;97172.21;108915;1251;96001;-76
2023/02/04 07:00:26;;;;;;;4.30;3.40;;;;;;;-1.47;83.05;97184.38;108901;1251;112014;-78
2023/02/04 07:02:55;;;;;;;5.20;4.20;;;;;;;-1.47;82.90;97195.50;108906;1251;101322;-76
2023/02/04 07:05:23;;;;;;;4.40;3.70;;;;;;;-1.48;82.80;97207.98;108699;1251;99924;-77
2023/02/04 07:07:52;;;;;;;5.00;3.80;;;;;;;-1.51;82.98;97227.15;108894;1251;95562;-77
2023/02/04 07:10:20;;;;;;;4.80;3.70;;;;;;;-1.51;83.10;97240.41;108947;1251;95989;-76
2023/02/04 07:12:49;;;;;;;4.20;3.60;;;;;;;-1.51;82.98;97250.08;108867;1250;103166;-76
2023/02/04 07:15:17;;;;;;;4.70;3.80;;;;;;;-1.57;82.89;97254.66;108921;1251;101174;-77
2023/02/04 07:17:45;;;;;;;5.00;3.80;;;;;;;-1.58;82.95;97278.30;108872;1251;99619;-76
2023/02/04 07:20:13;;;;;;;5.40;3.80;;;;;;;-1.58;82.96;97286.56;108819;1253;95586;-77
2023/02/04 07:22:41;;;;;;;5.40;3.80;;;;;;;-1.58;82.90;97304.77;108901;1251;96422;-77
2023/02/04 07:25:13;;;;;;;7.20;4.50;;;;;;;-1.60;82.77;97317.44;108911;1251;103506;-76
2023/02/04 07:27:41;;;;;;;7.20;5.30;;;;;;;-1.57;82.83;97338.68;108665;1251;101264;-77
2023/02/04 07:30:10;;;;;;;6.70;4.30;;;;;;;-1.55;82.97;97354.17;108845;1251;99048;-78
2023/02/04 07:32:38;;;;;;;5.90;3.90;;;;;;;-1.54;82.92;97368.95;108676;1251;95581;-78
2023/02/04 07:35:07;;;;;;;6.80;4.70;;;;;;;-1.57;82.68;97380.73;108655;1254;96107;-77
2023/02/04 07:37:35;;;;;;;7.40;5.40;;;;;;;-1.63;82.61;97392.52;108886;1251;103814;-78
2023/02/04 07:40:04;;;;;;;5.40;4.20;;;;;;;-1.62;82.75;97414.33;108718;1254;101338;-78
2023/02/04 07:42:32;;;;;;;7.90;4.70;;;;;;;-1.62;82.55;97426.37;108862;1251;99883;-77
2023/02/04 07:45:00;;;;;;;7.90;5.00;;;;;;;-1.65;82.36;97437.38;108678;1251;180553;-78
2023/02/04 07:47:29;;;;;;;5.40;3.90;;;;;;;-1.67;82.29;97441.08;108912;1251;95983;-78
2023/02/04 07:49:57;;;;;;;7.10;5.20;;;;;;;-1.70;82.21;97452.81;108915;1251;103881;-78
2023/02/04 07:52:25;;;;;;;6.70;5.70;;;;;;;-1.69;82.30;97462.82;108912;1251;101502;-76
2023/02/04 07:54:53;;;;;;;7.90;5.70;;;;;;;-1.70;82.25;97473.48;108671;1254;99812;-78
2023/02/04 07:57:21;;;;;;;5.70;4.20;;;;;;;-1.79;82.19;97487.77;108886;1251;95645;-78
2023/02/04 07:59:49;;;;;;;6.00;4.50;;;;;;;-1.91;82.21;97495.30;108863;1254;96512;-76
2023/02/04 08:02:17;;;;;;;5.80;5.20;;;;;;;-1.92;82.29;97517.80;108918;1251;103609;-78
2023/02/04 08:04:46;;;;;;;9.50;7.00;;;;;;;-1.85;82.32;97525.20;108920;1251;101094;-77
2023/02/04 08:07:14;;;;;;;8.10;5.60;;;;;;;-1.80;82.45;97531.65;108882;1251;99967;-78
2023/02/04 08:09:42;;;;;;;8.20;5.60;;;;;;;-1.74;82.42;97550.73;108841;1251;95552;-76
2023/02/04 08:12:10;;;;;;;6.60;5.00;;;;;;;-1.75;82.23;97554.86;108856;1251;95997;-79
2023/02/04 08:14:38;;;;;;;9.70;5.70;;;;;;;-1.75;82.18;97557.52;108939;1251;103760;-78
2023/02/04 08:17:06;;;;;;;9.40;6.40;;;;;;;-1.76;82.08;97563.95;108904;1251;101327;-77
2023/02/04 08:19:35;;;;;;;8.20;5.00;;;;;;;-1.78;82.13;97573.08;108881;1251;100162;-77
2023/02/04 08:22:03;;;;;;;8.40;5.30;;;;;;;-1.84;82.02;97575.69;108833;1251;95549;-79
2023/02/04 08:24:31;;;;;;;8.00;5.90;;;;;;;-1.88;81.89;97573.77;108842;1251;95996;-79
2023/02/04 08:26:59;;;;;;;8.90;5.70;;;;;;;-1.99;82.05;97594.45;108981;1251;111947;-78
2023/02/04 08:29:27;;;;;;;8.60;5.00;;;;;;;-2.08;82.18;97597.48;108883;1250;101234;-77
2023/02/04 08:31:55;;;;;;;8.30;6.10;;;;;;;-2.11;82.32;97603.11;108859;1251;99896;-77
2023/02/04 08:34:23;;;;;;;9.10;6.30;;;;;;;-2.11;82.51;97617.67;108889;1251;95530;-77
2023/02/04 08:36:51;;;;;;;9.00;6.40;;;;;;;-2.11;82.53;97621.91;108810;1252;96419;-78
2023/02/04 08:39:19;;;;;;;7.10;5.60;;;;;;;-2.08;82.48;97630.37;108818;1250;102735;-77
2023/02/04 08:41:48;;;;;;;8.60;6.40;;;;;;;-2.08;82.41;97633.88;108907;1251;100049;-78
2023/02/04 08:44:16;;;;;;;10.30;6.40;;;;;;;-2.09;82.22;97637.80;108862;1251;99948;-77
2023/02/04 08:46:44;;;;;;;9.80;6.90;;;;;;;-2.07;82.06;97644.75;108714;1253;95868;-79
2023/02/04 08:49:12;;;;;;;11.30;6.70;;;;;;;-2.07;81.98;97651.98;108879;1251;96168;-77
2023/02/04 08:51:40;;;;;;;10.10;6.10;;;;;;;-2.08;81.69;97656.10;108803;1251;103194;-80
2023/02/04 08:54:08;;;;;;;6.50;5.10;;;;;;;-2.11;81.56;97661.42;108796;1251;101384;-77
2023/02/04 08:56:36;;;;;;;7.20;5.60;;;;;;;-2.11;81.45;97663.89;108644;1254;99862;-77
2023/02/04 08:59:04;;;;;;;9.20;5.70;;;;;;;-2.09;81.28;97680.48;108742;1254;96101;-82
2023/02/04 09:01:32;;;;;;;9.30;5.80;;;;;;;-2.07;81.18;97683.48;108652;1251;96940;-77
2023/02/04 09:04:01;;;;;;;8.70;6.60;;;;;;;-2.03;81.09;97688.42;108836;1251;104023;-77
2023/02/04 09:06:29;;;;;;;8.70;5.70;;;;;;;-2.03;80.81;97697.05;108789;1251;101690;-77
2023/02/04 09:08:57;;;;;;;8.70;5.30;;;;;;;-2.05;80.64;97710.29;108793;1251;99838;-77
2023/02/04 09:11:25;;;;;;;9.90;5.50;;;;;;;-2.06;80.53;97725.42;108796;1251;95599;-79
2023/02/04 09:13:55;;;;;;;8.70;5.80;;;;;;;-2.02;80.58;97742.00;108844;1251;96347;-77
2023/02/04 09:16:23;;;;;;;7.90;5.40;;;;;;;-1.98;80.66;97751.50;108874;1251;103058;-77
2023/02/04 09:18:51;;;;;;;10.50;5.60;;;;;;;-1.97;80.43;97757.46;108872;1251;101532;-77
2023/02/04 09:21:20;;;;;;;11.20;6.00;;;;;;;-1.93;80.34;97769.64;108593;1252;100017;-77
2023/02/04 09:23:48;;;;;;;9.10;6.60;;;;;;;-1.86;80.61;97772.17;108813;1251;95535;-76
2023/02/04 09:26:16;;;;;;;9.80;6.30;;;;;;;-1.80;80.70;97785.36;108867;1251;96011;-77
2023/02/04 09:28:44;;;;;;;10.60;6.90;;;;;;;-1.77;80.38;97793.59;108910;1251;111798;-79
2023/02/04 09:31:12;;;;;;;9.60;6.00;;;;;;;-1.76;80.35;97789.05;108909;1251;101462;-79
2023/02/04 09:33:41;;;;;;;22.40;11.50;;;;;;;-1.75;79.76;97798.89;108920;1251;99861;-77
2023/02/04 09:36:09;;;;;;;20.10;10.90;;;;;;;-1.79;79.61;97803.78;108881;1251;95500;-77
2023/02/04 09:38:37;;;;;;;21.00;9.50;;;;;;;-1.81;79.73;97812.73;108873;1251;96451;-79
2023/02/04 09:48:27;;;;;;;18.00;10.40;;;;;;;-1.83;79.00;97830.23;108885;1251;98882;-76
2023/02/04 09:51:04;;;;;;;13.50;8.20;;;;;;;-1.86;79.11;97839.80;108818;1251;95833;-78
2023/02/04 09:53:34;;;;;;;10.90;6.60;;;;;;;-1.84;79.33;97846.34;108858;1251;96014;-78
2023/02/04 09:56:02;;;;;;;11.80;5.90;;;;;;;-1.80;79.27;97849.92;108856;1251;103928;-78
2023/02/04 09:58:35;;;;;;;8.60;5.50;;;;;;;-1.78;79.05;97851.72;108661;1251;101326;-78
2023/02/04 10:01:14;;;;;;;8.40;5.60;;;;;;;-1.78;78.70;97854.13;108873;1251;100005;-78
2023/02/04 10:03:46;;;;;;;10.60;6.00;;;;;;;-1.76;78.64;97860.02;108740;1250;95596;-77
2023/02/04 10:06:24;;;;;;;8.90;5.10;;;;;;;-1.75;78.78;97865.89;108603;1251;96144;-77
2023/02/04 10:08:52;;;;;;;11.70;5.20;;;;;;;-1.78;78.51;97872.31;108878;1251;103553;-78
2023/02/04 10:11:23;;;;;;;11.40;7.20;;;;;;;-1.81;78.52;97873.91;108879;1251;101537;-78
2023/02/04 10:13:54;;;;;;;11.80;8.10;;;;;;;-1.78;78.69;97876.02;108868;1251;99004;-77
2023/02/04 10:16:32;;;;;;;15.70;8.10;;;;;;;-1.73;79.00;97874.63;108810;1251;95803;-77
2023/02/04 10:19:04;;;;;;;18.60;8.70;;;;;;;-1.70;78.75;97878.40;108931;1251;96062;-77
2023/02/04 10:21:36;;;;;;;10.00;6.10;;;;;;;-1.73;78.43;97886.44;108847;1251;103611;-77
2023/02/04 10:24:19;;;;;;;22.10;12.10;;;;;;;-1.85;78.22;97887.66;108888;1251;101238;-78
2023/02/04 10:26:48;;;;;;;17.10;8.40;;;;;;;-1.89;78.23;97887.08;108834;1251;99668;-79
2023/02/04 10:29:19;;;;;;;14.20;7.10;;;;;;;-1.90;78.36;97892.85;108834;1251;95672;-78
2023/02/04 10:31:49;;;;;;;12.70;7.00;;;;;;;-1.91;78.41;97889.20;108794;1251;96531;-77
2023/02/04 10:34:32;;;;;;;11.50;6.50;;;;;;;-1.89;78.54;97899.66;108863;1251;103750;-78
2023/02/04 10:37:12;;;;;;;12.70;6.10;;;;;;;-1.86;78.55;97898.20;108901;1251;101516;-77
2023/02/04 10:39:43;;;;;;;10.20;7.10;;;;;;;-1.81;78.51;97896.00;108825;1251;99496;-77
2023/02/04 10:42:26;;;;;;;10.10;6.80;;;;;;;-1.79;78.28;97902.20;108821;1251;95638;-76
2023/02/04 10:44:55;;;;;;;12.00;7.20;;;;;;;-1.87;78.16;97896.64;108902;1251;96022;-77
2023/02/04 10:47:29;;;;;;;14.80;8.30;;;;;;;-1.83;78.48;97896.54;108885;1251;103488;-78
2023/02/04 10:50:05;;;;;;;14.70;6.80;;;;;;;-1.74;78.56;97904.15;108881;1251;101307;-76
2023/02/04 10:52:40;;;;;;;8.70;5.90;;;;;;;-1.77;78.06;97903.84;108735;1253;100005;-76
2023/02/04 10:55:18;;;;;;;9.10;5.80;;;;;;;-1.79;77.81;97900.13;108834;1251;95587;-77
2023/02/04 10:57:49;;;;;;;13.00;7.20;;;;;;;-1.77;77.88;97903.16;108614;1251;96067;-77
2023/02/04 11:00:22;;;;;;;11.00;6.20;;;;;;;-1.80;77.76;97904.95;108889;1252;103392;-76
2023/02/04 11:03:02;;;;;;;10.40;6.80;;;;;;;-1.81;77.92;97910.31;108860;1251;100034;-77
2023/02/04 11:05:36;;;;;;;11.60;6.20;;;;;;;-1.76;78.20;97910.14;108770;1251;108088;-77
2023/02/04 11:08:20;;;;;;;11.30;7.20;;;;;;;-1.83;78.16;97920.88;108648;1253;96026;-77
2023/02/04 11:10:55;;;;;;;11.20;6.60;;;;;;;-1.89;78.29;97927.54;108851;1251;96045;-77
2023/02/04 11:13:39;;;;;;;9.40;6.50;;;;;;;-2.01;78.30;97928.44;108758;1253;102595;-76
2023/02/04 11:16:23;;;;;;;10.70;6.60;;;;;;;-2.06;78.30;97915.16;108674;1251;101239;-77
2023/02/04 11:18:52;;;;;;;10.40;6.70;;;;;;;-2.03;78.31;97914.90;108745;1250;99027;-77
2023/02/04 11:21:41;;;;;;;10.50;6.50;;;;;;;-2.02;78.41;97928.24;108767;1251;95655;-77
2023/02/04 11:24:12;;;;;;;6.90;6.10;;;;;;;-2.12;78.48;97929.35;108887;1251;96007;-76
2023/02/04 11:26:44;;;;;;;8.50;7.60;;;;;;;-2.26;78.69;97936.07;108861;1251;103126;-77
2023/02/04 11:29:36;;;;;;;11.40;7.80;;;;;;;-2.29;78.75;97938.98;108810;1251;100070;-76
2023/02/04 11:32:26;;;;;;;11.10;7.60;;;;;;;-2.25;78.76;97939.06;108807;1251;99896;-75
2023/02/04 11:34:56;;;;;;;11.70;6.90;;;;;;;-2.15;78.91;97943.55;108749;1251;95587;-76
2023/02/04 11:37:40;;;;;;;11.00;6.50;;;;;;;-2.02;78.73;97946.70;108886;1251;96486;-77
2023/02/04 11:40:22;;;;;;;9.90;6.10;;;;;;;-1.95;78.46;97949.50;108791;1252;103509;-77
2023/02/04 11:42:57;;;;;;;9.30;6.60;;;;;;;-1.95;78.16;97947.58;108814;1251;101462;-75